»·PEaware :: N810PE KGCN-KLAX

N810PE :: KGCN-KLAX

FLIGHT INFORMATION

Flight Status: Arrived
Operator: Privately registered:
United States
More flights under this callsign
Pilot: Alex S. (5)
Aircraft: LOCKHEED L-1011 TRI-STAR
(L101)
More flights by this aircraft type
Origin: KGCN Grand Canyon Natl Park
United States
Destination: KLAX Los Angeles Intl
United States
More flights between these airports :: More routes between these airports
Route: PARKS2 PGS RIIVR2
File this flight plan on PilotEdge
Remarks:
Altitude:
(Current/Filed)
26,000ft
Speed:
(Current/Filed)
0kts
Departed: 14-Jul-12 04:46 AM
Arrived: 14-Jul-12 05:39 AM
Distance/Time
Traveled:
330nm/0:53
Distance/Time
To Go:
Arrived

Flight Plot

Page will automatically refresh every two minutes.


Map Options




Map Legend


Flown Route
Filed Route
Departure Airport
Arrival Airport
Navaid (VOR, NDB)
Fix

Horizontal Profiles

Position Reports

Time Latitude Longitude Heading Altitude Ground
Speed
14-Jul-12 04:39 35.959718 -112.136338 220 6623ft 0kts
14-Jul-12 04:40 35.959718 -112.136338 220 6623ft 0kts
14-Jul-12 04:41 35.959718 -112.136338 220 6623ft 0kts
14-Jul-12 04:42 35.961034 -112.136251 348 6623ft 12kts
14-Jul-12 04:43 35.959909 -112.138971 220 6623ft 73kts
14-Jul-12 04:45 35.914552 -112.188063 234 8837ft 287kts
14-Jul-12 04:46 35.920738 -112.281891 285 14340ft 298kts
14-Jul-12 04:47 35.914580 -112.382466 245 18363ft 326kts
14-Jul-12 04:48 35.881881 -112.478819 248 21889ft 342kts
14-Jul-12 04:49 35.847419 -112.584908 249 25368ft 343kts
14-Jul-12 04:50 35.817219 -112.705908 253 26384ft 413kts
14-Jul-12 04:51 35.781741 -112.855394 254 26511ft 501kts
14-Jul-12 04:52 35.747458 -113.008360 255 26350ft 509kts
14-Jul-12 04:53 35.712107 -113.173644 254 26127ft 504kts
14-Jul-12 04:54 35.674583 -113.329723 247 26136ft 498kts
14-Jul-12 04:55 35.619413 -113.485571 240 26079ft 499kts
14-Jul-12 04:56 35.556446 -113.637068 243 26210ft 499kts
14-Jul-12 04:57 35.517011 -113.798484 256 26230ft 501kts
14-Jul-12 04:58 35.488558 -113.960463 253 26170ft 501kts
14-Jul-12 04:59 35.437288 -114.097536 238 26108ft 497kts
14-Jul-12 05:00 35.375601 -114.238061 241 26052ft 498kts
14-Jul-12 05:01 35.313637 -114.383683 240 26061ft 494kts
14-Jul-12 05:02 35.246265 -114.529716 240 26070ft 493kts
14-Jul-12 05:03 35.180278 -114.676768 241 26086ft 492kts
14-Jul-12 05:04 35.115387 -114.824200 242 26078ft 493kts
14-Jul-12 05:05 35.051111 -114.972277 242 26068ft 493kts
14-Jul-12 05:06 34.986950 -115.121646 242 25949ft 494kts
14-Jul-12 05:07 34.924738 -115.270841 242 26060ft 493kts
14-Jul-12 05:08 34.859471 -115.417464 240 26081ft 493kts
14-Jul-12 05:09 34.791281 -115.562397 239 26208ft 491kts
14-Jul-12 05:10 34.721106 -115.706697 238 26211ft 494kts
14-Jul-12 05:11 34.651990 -115.851614 242 26130ft 496kts
14-Jul-12 05:11 34.599215 -115.975735 242 26189ft 495kts
14-Jul-12 05:12 34.538132 -116.125519 242 26168ft 495kts
14-Jul-12 05:13 34.477550 -116.275801 242 26070ft 497kts
14-Jul-12 05:14 34.416795 -116.425946 242 26182ft 481kts
14-Jul-12 05:15 34.362169 -116.559257 242 24953ft 403kts
14-Jul-12 05:16 34.304442 -116.666196 233 22421ft 376kts
14-Jul-12 05:17 34.245997 -116.765952 242 19731ft 352kts
14-Jul-12 05:18 34.199994 -116.870773 243 17868ft 350kts
14-Jul-12 05:19 34.158739 -116.978223 249 18075ft 360kts
14-Jul-12 05:20 34.122645 -117.094520 251 17945ft 376kts
14-Jul-12 05:21 34.088055 -117.209241 250 15720ft 363kts
14-Jul-12 05:22 34.060011 -117.319419 260 13417ft 334kts
14-Jul-12 05:23 34.044194 -117.425735 256 11984ft 313kts
14-Jul-12 05:24 34.025227 -117.519092 256 10539ft 287kts
14-Jul-12 05:25 34.011867 -117.611450 264 9982ft 276kts
14-Jul-12 05:26 34.005525 -117.701229 265 10036ft 270kts
14-Jul-12 05:28 33.997489 -117.788257 263 10060ft 276kts
14-Jul-12 05:29 33.989814 -117.873827 261 9190ft 285kts
14-Jul-12 05:30 33.977360 -117.960601 263 7304ft 275kts
14-Jul-12 05:31 33.969119 -118.044342 264 5726ft 269kts
14-Jul-12 05:32 33.961656 -118.127195 265 4831ft 257kts
14-Jul-12 05:33 33.957163 -118.203116 263 3489ft 232kts
14-Jul-12 05:34 33.949810 -118.261092 266 2080ft 170kts
14-Jul-12 05:35 33.944507 -118.313243 262 1441ft 171kts
14-Jul-12 05:36 33.939172 -118.366405 262 435ft 164kts
14-Jul-12 05:37 33.934849 -118.407647 262 140ft 39kts
14-Jul-12 05:38 33.933351 -118.410190 81 140ft 25kts
14-Jul-12 05:39 33.934296 -118.400911 83 140ft 26kts
14-Jul-12 05:40 33.935037 -118.393600 83 140ft 18kts
14-Jul-12 05:41 33.935663 -118.387468 83 140ft 22kts
14-Jul-12 05:42 33.935890 -118.381375 162 140ft 11kts
14-Jul-12 05:43 33.933930 -118.381286 179 140ft 11kts

Navigation Log

Ident Type
Flight plan parsing failed, navigation log unavailable